sensor_id;sensor_type;location;lat;lon;timestamp;pressure;altitude;pressure_sealevel;temperature;humidity
65054;BME280;51639;47.828;35.038;2023-05-28T00:07:12;99988.09;;;19.19;100.00
65054;BME280;51639;47.828;35.038;2023-05-28T00:22:15;99991.34;;;19.38;100.00
65054;BME280;51639;47.828;35.038;2023-05-28T00:37:17;99984.31;;;19.37;100.00
65054;BME280;51639;47.828;35.038;2023-05-28T00:52:19;99982.59;;;19.39;100.00
65054;BME280;51639;47.828;35.038;2023-05-28T01:07:21;99998.72;;;19.26;100.00
65054;BME280;51639;47.828;35.038;2023-05-28T01:22:28;100032.09;;;18.99;100.00
65054;BME280;51639;47.828;35.038;2023-05-28T01:37:32;100027.84;;;18.54;100.00
65054;BME280;51639;47.828;35.038;2023-05-28T01:52:35;100022.81;;;18.23;100.00
65054;BME280;51639;47.828;35.038;2023-05-28T02:07:37;100023.94;;;18.16;100.00
65054;BME280;51639;47.828;35.038;2023-05-28T02:22:39;100024.13;;;18.13;100.00
65054;BME280;51639;47.828;35.038;2023-05-28T02:37:41;100025.75;;;18.34;100.00
65054;BME280;51639;47.828;35.038;2023-05-28T02:52:43;100026.81;;;18.81;100.00
65054;BME280;51639;47.828;35.038;2023-05-28T03:07:46;100044.59;;;19.00;100.00
65054;BME280;51639;47.828;35.038;2023-05-28T03:22:48;100038.38;;;18.85;100.00
65054;BME280;51639;47.828;35.038;2023-05-28T03:37:51;100057.88;;;19.01;100.00
65054;BME280;51639;47.828;35.038;2023-05-28T03:52:53;100064.31;;;19.13;100.00
65054;BME280;51639;47.828;35.038;2023-05-28T04:07:55;100054.66;;;19.38;100.00
65054;BME280;51639;47.828;35.038;2023-05-28T04:22:57;100069.81;;;20.29;100.00
65054;BME280;51639;47.828;35.038;2023-05-28T04:37:59;100067.97;;;20.72;100.00
65054;BME280;51639;47.828;35.038;2023-05-28T04:53:01;100078.69;;;21.22;100.00
65054;BME280;51639;47.828;35.038;2023-05-28T05:08:03;100109.34;;;21.78;100.00
65054;BME280;51639;47.828;35.038;2023-05-28T05:23:05;100112.81;;;22.16;100.00
65054;BME280;51639;47.828;35.038;2023-05-28T05:38:07;100099.56;;;22.59;100.00
65054;BME280;51639;47.828;35.038;2023-05-28T05:53:09;100090.47;;;24.17;100.00
65054;BME280;51639;47.828;35.038;2023-05-28T06:08:11;100117.00;;;25.24;100.00
65054;BME280;51639;47.828;35.038;2023-05-28T06:23:13;100116.78;;;25.46;100.00
65054;BME280;51639;47.828;35.038;2023-05-28T06:38:15;100114.50;;;26.12;100.00
65054;BME280;51639;47.828;35.038;2023-05-28T06:53:17;100104.88;;;26.51;100.00
65054;BME280;51639;47.828;35.038;2023-05-28T07:08:19;100108.28;;;26.95;100.00
65054;BME280;51639;47.828;35.038;2023-05-28T07:23:21;100119.72;;;26.22;100.00
65054;BME280;51639;47.828;35.038;2023-05-28T07:38:23;100114.69;;;26.20;100.00
65054;BME280;51639;47.828;35.038;2023-05-28T07:53:25;100094.38;;;27.08;100.00
65054;BME280;51639;47.828;35.038;2023-05-28T08:08:27;100080.56;;;28.42;100.00
65054;BME280;51639;47.828;35.038;2023-05-28T08:23:31;100082.53;;;27.87;100.00
65054;BME280;51639;47.828;35.038;2023-05-28T08:38:36;100063.66;;;28.27;100.00
65054;BME280;51639;47.828;35.038;2023-05-28T08:53:46;100071.72;;;28.93;83.55
65054;BME280;51639;47.828;35.038;2023-05-28T09:08:49;100076.97;;;29.45;88.32
65054;BME280;51639;47.828;35.038;2023-05-28T09:23:51;100085.00;;;29.49;85.78
65054;BME280;51639;47.828;35.038;2023-05-28T09:38:53;100079.63;;;29.30;87.75
65054;BME280;51639;47.828;35.038;2023-05-28T09:54:00;100084.41;;;30.23;74.13
65054;BME280;51639;47.828;35.038;2023-05-28T10:09:03;100091.22;;;31.03;68.29
65054;BME280;51639;47.828;35.038;2023-05-28T10:24:06;100066.69;;;31.49;62.63
65054;BME280;51639;47.828;35.038;2023-05-28T10:39:13;100065.63;;;31.07;58.43
65054;BME280;51639;47.828;35.038;2023-05-28T10:54:24;100057.00;;;31.35;54.83
65054;BME280;51639;47.828;35.038;2023-05-28T11:09:26;100045.84;;;31.83;51.66
65054;BME280;51639;47.828;35.038;2023-05-28T11:24:28;100035.00;;;30.56;55.09
65054;BME280;51639;47.828;35.038;2023-05-28T11:39:31;100041.72;;;29.86;53.84
65054;BME280;51639;47.828;35.038;2023-05-28T11:54:33;100033.56;;;28.74;58.31
65054;BME280;51639;47.828;35.038;2023-05-28T12:09:35;100020.31;;;28.12;67.55
65054;BME280;51639;47.828;35.038;2023-05-28T12:24:37;100001.50;;;27.92;74.30
65054;BME280;51639;47.828;35.038;2023-05-28T12:39:39;100017.81;;;27.88;76.45
65054;BME280;51639;47.828;35.038;2023-05-28T12:54:41;100006.38;;;27.78;77.51
65054;BME280;51639;47.828;35.038;2023-05-28T13:09:43;100023.38;;;27.88;78.05
65054;BME280;51639;47.828;35.038;2023-05-28T13:24:45;100025.16;;;27.78;78.07
65054;BME280;51639;47.828;35.038;2023-05-28T13:39:48;100005.13;;;27.00;100.00
65054;BME280;51639;47.828;35.038;2023-05-28T13:54:50;100012.25;;;26.82;100.00
65054;BME280;51639;47.828;35.038;2023-05-28T14:09:52;100061.28;;;26.22;100.00
65054;BME280;51639;47.828;35.038;2023-05-28T14:24:54;100075.56;;;24.66;100.00
65054;BME280;51639;47.828;35.038;2023-05-28T14:39:56;100122.75;;;23.23;100.00
65054;BME280;51639;47.828;35.038;2023-05-28T14:54:59;100129.56;;;21.53;100.00
65054;BME280;51639;47.828;35.038;2023-05-28T15:10:01;100140.06;;;20.86;100.00
65054;BME280;51639;47.828;35.038;2023-05-28T15:25:03;100115.63;;;20.47;100.00
65054;BME280;51639;47.828;35.038;2023-05-28T15:40:06;100094.84;;;19.85;100.00
65054;BME280;51639;47.828;35.038;2023-05-28T15:55:09;100107.38;;;19.86;100.00
65054;BME280;51639;47.828;35.038;2023-05-28T16:10:11;100144.22;;;20.09;100.00
65054;BME280;51639;47.828;35.038;2023-05-28T16:25:14;100141.53;;;20.15;100.00
65054;BME280;51639;47.828;35.038;2023-05-28T16:40:16;100139.91;;;20.23;100.00
65054;BME280;51639;47.828;35.038;2023-05-28T16:55:18;100143.91;;;20.22;100.00
65054;BME280;51639;47.828;35.038;2023-05-28T17:10:21;100144.44;;;20.26;100.00
65054;BME280;51639;47.828;35.038;2023-05-28T17:25:23;100146.56;;;20.16;100.00
65054;BME280;51639;47.828;35.038;2023-05-28T17:40:27;100143.34;;;20.18;100.00
65054;BME280;51639;47.828;35.038;2023-05-28T17:55:29;100141.75;;;20.11;100.00
65054;BME280;51639;47.828;35.038;2023-05-28T18:10:31;100133.16;;;20.03;100.00
65054;BME280;51639;47.828;35.038;2023-05-28T18:25:33;100157.03;;;20.12;100.00
65054;BME280;51639;47.828;35.038;2023-05-28T18:40:38;100150.66;;;20.00;100.00
65054;BME280;51639;47.828;35.038;2023-05-28T18:55:40;100144.38;;;19.80;100.00
65054;BME280;51639;47.828;35.038;2023-05-28T19:10:42;100152.06;;;19.75;100.00
65054;BME280;51639;47.828;35.038;2023-05-28T19:25:44;100145.41;;;19.82;100.00
65054;BME280;51639;47.828;35.038;2023-05-28T19:40:46;100148.75;;;19.71;100.00
65054;BME280;51639;47.828;35.038;2023-05-28T19:55:50;100145.09;;;19.60;100.00
65054;BME280;51639;47.828;35.038;2023-05-28T20:10:52;100140.00;;;19.53;100.00
65054;BME280;51639;47.828;35.038;2023-05-28T20:25:54;100136.97;;;19.51;100.00
65054;BME280;51639;47.828;35.038;2023-05-28T20:40:56;100142.06;;;19.58;100.00
65054;BME280;51639;47.828;35.038;2023-05-28T20:55:58;100125.75;;;19.54;100.00
65054;BME280;51639;47.828;35.038;2023-05-28T21:11:00;100105.03;;;19.59;100.00
65054;BME280;51639;47.828;35.038;2023-05-28T21:26:03;100110.63;;;19.50;100.00
65054;BME280;51639;47.828;35.038;2023-05-28T21:41:05;100099.34;;;19.48;100.00
65054;BME280;51639;47.828;35.038;2023-05-28T21:56:07;100105.66;;;19.33;100.00
65054;BME280;51639;47.828;35.038;2023-05-28T22:11:09;100124.03;;;19.42;100.00
65054;BME280;51639;47.828;35.038;2023-05-28T22:26:12;100123.69;;;19.34;100.00
65054;BME280;51639;47.828;35.038;2023-05-28T22:41:14;100116.94;;;19.35;100.00
65054;BME280;51639;47.828;35.038;2023-05-28T22:56:16;100117.69;;;19.36;100.00
65054;BME280;51639;47.828;35.038;2023-05-28T23:11:18;100108.25;;;19.42;100.00
65054;BME280;51639;47.828;35.038;2023-05-28T23:26:20;100100.53;;;19.26;100.00
65054;BME280;51639;47.828;35.038;2023-05-28T23:41:23;100104.69;;;19.51;100.00
65054;BME280;51639;47.828;35.038;2023-05-28T23:56:26;100106.94;;;19.53;100.00
